Time;durP1;ratioP1;P1;durP2;ratioP2;P2;SDS_P1;SDS_P2;PMS_P1;PMS_P2;Temp;Humidity;BMP_temperature;BMP_pressure;BME280_temperature;BME280_humidity;BME280_pressure;Samples;Min_cycle;Max_cycle;Signal;HPM_P1;HPM_P2
2023/09/17 00:01:17;;;;;;;1999.90;999.90;;;;;;;17.58;100.00;101367.63;10485579;28;20084;-69
2023/09/17 00:06:19;;;;;;;1999.90;999.90;;;;;;;17.53;100.00;101365.31;10471167;28;20512;-68
2023/09/17 00:11:22;;;;;;;1999.90;999.90;;;;;;;17.13;100.00;101356.97;10505261;28;20416;-69
2023/09/17 00:16:30;;;;;;;1999.90;999.90;;;;;;;17.28;100.00;101363.72;10487857;28;20059;-68
2023/09/17 00:21:34;;;;;;;1999.90;999.90;;;;;;;17.40;100.00;101368.09;10504746;28;20473;-68
2023/09/17 00:26:36;;;;;;;1999.90;999.90;;;;;;;17.45;100.00;101370.38;10504614;28;20466;-69
2023/09/17 00:31:38;;;;;;;1999.90;999.90;;;;;;;17.16;100.00;101372.59;10504313;28;20049;-69
2023/09/17 00:36:41;;;;;;;1999.90;999.90;;;;;;;17.15;100.00;101361.19;10504784;28;20181;-69
2023/09/17 00:41:43;;;;;;;1999.90;999.90;;;;;;;17.09;100.00;101343.97;10504474;28;20083;-71
2023/09/17 00:46:46;;;;;;;1999.90;999.90;;;;;;;16.72;100.00;101330.00;10486027;28;20586;-71
2023/09/17 00:51:49;;;;;;;1999.90;999.90;;;;;;;16.31;100.00;101328.66;10485595;28;20074;-70
2023/09/17 00:56:51;;;;;;;1999.90;999.90;;;;;;;16.21;100.00;101325.00;10504080;28;20131;-71
2023/09/17 01:01:54;;;;;;;1999.90;999.90;;;;;;;15.88;100.00;101327.31;10503205;28;20174;-71
2023/09/17 01:06:58;;;;;;;1999.90;999.90;;;;;;;15.82;100.00;101322.47;10485396;28;20052;-71
2023/09/17 01:12:01;;;;;;;1999.90;999.90;;;;;;;15.81;100.00;101314.66;10484818;28;20078;-71
2023/09/17 01:17:06;;;;;;;1999.90;999.90;;;;;;;15.44;100.00;101304.88;10485616;28;20087;-71
2023/09/17 01:22:20;;;;;;;1999.90;999.90;;;;;;;15.63;100.00;101293.00;10485470;28;20044;-71
2023/09/17 01:27:23;;;;;;;1999.90;999.90;;;;;;;15.50;100.00;101300.94;10484676;28;20408;-71
2023/09/17 01:32:26;;;;;;;1999.90;999.90;;;;;;;15.52;100.00;101289.34;10484293;28;20040;-71
2023/09/17 01:37:34;;;;;;;1999.90;999.90;;;;;;;15.43;100.00;101287.34;10502367;28;20083;-71
2023/09/17 01:42:39;;;;;;;1999.90;999.90;;;;;;;15.59;100.00;101289.75;10484551;28;20048;-71
2023/09/17 01:47:43;;;;;;;1999.90;999.90;;;;;;;15.27;100.00;101284.94;10484098;28;20135;-72
2023/09/17 01:52:45;;;;;;;1999.90;999.90;;;;;;;15.32;100.00;101293.38;10483910;28;20056;-73
2023/09/17 01:57:48;;;;;;;1999.90;999.90;;;;;;;15.36;100.00;101310.66;10483863;28;20051;-72
2023/09/17 02:02:52;;;;;;;1999.90;999.90;;;;;;;15.33;100.00;101332.00;10483725;28;20131;-71
2023/09/17 02:07:55;;;;;;;1999.90;999.90;;;;;;;15.20;100.00;101329.34;10483467;28;20102;-71
2023/09/17 02:12:57;;;;;;;1999.90;999.90;;;;;;;15.35;100.00;101326.63;10466107;28;20075;-70
2023/09/17 02:17:59;;;;;;;1999.90;999.90;;;;;;;15.21;100.00;101324.91;10482978;28;20079;-70
2023/09/17 02:23:02;;;;;;;1999.90;999.90;;;;;;;15.16;100.00;101305.94;10499265;28;20076;-71
2023/09/17 02:28:04;;;;;;;1999.90;999.90;;;;;;;15.08;100.00;101313.50;10499695;28;20044;-71
2023/09/17 02:33:10;;;;;;;1999.90;999.90;;;;;;;15.26;100.00;101314.88;10499526;28;20461;-71
2023/09/17 02:38:13;;;;;;;1999.90;999.90;;;;;;;15.20;100.00;101310.91;10466830;28;20056;-72
2023/09/17 02:43:15;;;;;;;1999.90;999.90;;;;;;;15.18;100.00;101299.63;10499742;28;20048;-71
2023/09/17 02:48:17;;;;;;;1999.90;999.90;;;;;;;15.22;100.00;101294.97;10499288;28;20056;-70
2023/09/17 02:53:20;;;;;;;1999.90;999.90;;;;;;;15.06;100.00;101292.53;10499430;28;20056;-70
2023/09/17 02:58:23;;;;;;;1999.90;999.90;;;;;;;15.18;100.00;101294.34;10499147;28;20048;-70
2023/09/17 03:03:25;;;;;;;1999.90;999.90;;;;;;;15.11;100.00;101292.22;10498502;28;20048;-70
2023/09/17 03:08:28;;;;;;;1999.90;999.90;;;;;;;15.27;100.00;101282.31;10498935;28;20105;-70
2023/09/17 03:13:31;;;;;;;1999.90;999.90;;;;;;;15.42;100.00;101288.31;10498184;28;20072;-70
2023/09/17 03:18:33;;;;;;;1999.90;999.90;;;;;;;15.19;100.00;101279.34;10498622;28;20051;-72
2023/09/17 03:23:36;;;;;;;1999.90;999.90;;;;;;;15.21;100.00;101272.16;10498015;28;20082;-72
2023/09/17 03:28:38;;;;;;;1999.90;999.90;;;;;;;15.23;100.00;101284.31;10480067;28;20497;-72
2023/09/17 03:33:41;;;;;;;1999.90;999.90;;;;;;;15.21;100.00;101272.16;10498232;28;20048;-69
2023/09/17 03:38:43;;;;;;;1999.90;999.90;;;;;;;15.28;100.00;101275.22;10498135;28;20045;-69
2023/09/17 03:43:46;;;;;;;1999.90;999.90;;;;;;;15.17;100.00;101268.91;10497724;28;20480;-69
2023/09/17 03:48:48;;;;;;;1999.90;999.90;;;;;;;15.34;100.00;101273.00;10479670;28;20452;-69
2023/09/17 03:53:51;;;;;;;1999.90;999.90;;;;;;;15.17;100.00;101266.25;10489306;22;20072;-66
2023/09/17 03:58:54;;;;;;;1999.90;999.90;;;;;;;15.22;100.00;101272.06;10521450;28;20484;-66
2023/09/17 04:03:57;;;;;;;1999.90;999.90;;;;;;;15.41;100.00;101276.06;10539594;28;20110;-66
2023/09/17 04:08:59;;;;;;;1999.90;999.90;;;;;;;15.17;100.00;101263.63;10539520;28;20093;-66
2023/09/17 04:14:01;;;;;;;1999.90;999.90;;;;;;;15.29;100.00;101261.94;10538788;28;20449;-66
2023/09/17 04:19:04;;;;;;;1999.90;999.90;;;;;;;15.45;100.00;101261.72;10539288;28;20044;-66
2023/09/17 04:24:07;;;;;;;1999.90;999.90;;;;;;;15.40;100.00;101256.75;10521557;28;20056;-66
2023/09/17 04:29:10;;;;;;;1999.90;999.90;;;;;;;15.40;100.00;101248.84;10504719;28;20052;-65
2023/09/17 04:34:13;;;;;;;1999.90;999.90;;;;;;;15.43;100.00;101242.47;10538976;28;20048;-66
2023/09/17 04:39:16;;;;;;;1999.90;999.90;;;;;;;15.27;100.00;101245.38;10521007;28;20127;-66
2023/09/17 04:44:18;;;;;;;1999.90;999.90;;;;;;;15.28;100.00;101243.56;10504549;28;20102;-66
2023/09/17 04:49:21;;;;;;;1999.90;999.90;;;;;;;15.54;100.00;101237.28;10528448;28;20054;-66
2023/09/17 04:54:23;;;;;;;1999.90;999.90;;;;;;;15.45;100.00;101240.59;10545869;28;20110;-66
2023/09/17 04:59:27;;;;;;;1999.90;999.90;;;;;;;15.37;100.00;101240.28;10545909;28;20123;-66
2023/09/17 05:04:30;;;;;;;1999.90;999.90;;;;;;;15.40;100.00;101240.91;10545753;28;20060;-65
2023/09/17 05:09:33;;;;;;;1999.90;999.90;;;;;;;15.56;100.00;101245.94;10544913;28;20040;-66
2023/09/17 05:14:35;;;;;;;1999.90;999.90;;;;;;;15.57;100.00;101242.34;10545351;28;20052;-67
2023/09/17 05:19:38;;;;;;;1999.90;999.90;;;;;;;15.45;100.00;101245.88;10527212;28;20052;-65
2023/09/17 05:24:40;;;;;;;1999.90;999.90;;;;;;;15.64;100.00;101247.22;10544972;28;20052;-65
2023/09/17 05:29:45;;;;;;;1999.90;999.90;;;;;;;15.60;100.00;101259.75;10544168;28;20117;-66
2023/09/17 05:34:48;;;;;;;1999.90;999.90;;;;;;;15.73;100.00;101260.56;10526634;28;20127;-65
2023/09/17 05:39:50;;;;;;;1999.90;999.90;;;;;;;15.87;100.00;101254.34;10544318;28;20056;-66
2023/09/17 05:44:53;;;;;;;1999.90;999.90;;;;;;;15.66;100.00;101261.97;10543510;28;20504;-66
2023/09/17 05:49:57;;;;;;;1999.90;999.90;;;;;;;16.11;100.00;101243.78;10544014;28;20075;-65
2023/09/17 05:55:03;;;;;;;1999.90;999.90;;;;;;;16.21;100.00;101236.00;10525577;28;20086;-65
2023/09/17 06:00:07;;;;;;;1999.90;999.90;;;;;;;16.03;100.00;101251.41;10510014;28;20071;-66
2023/09/17 06:05:10;;;;;;;1999.90;999.90;;;;;;;16.05;100.00;101265.34;10525725;28;20166;-67
2023/09/17 06:10:12;;;;;;;1999.90;999.90;;;;;;;16.18;100.00;101257.38;10543172;28;20109;-66
2023/09/17 06:15:15;;;;;;;1999.90;999.90;;;;;;;16.20;100.00;101259.91;10524392;28;20044;-66
2023/09/17 06:20:18;;;;;;;1999.90;999.90;;;;;;;16.15;100.00;101258.44;10542120;28;20377;-66
2023/09/17 06:25:23;;;;;;;1999.90;999.90;;;;;;;16.30;100.00;101255.63;10542608;28;20077;-66
2023/09/17 06:30:26;;;;;;;1999.90;999.90;;;;;;;16.22;100.00;101260.63;10541753;28;20040;-66
2023/09/17 06:35:29;;;;;;;1999.90;999.90;;;;;;;16.37;100.00;101259.47;10542174;28;20051;-66
2023/09/17 06:40:31;;;;;;;1999.90;999.90;;;;;;;16.20;100.00;101246.69;10523916;28;20064;-66
2023/09/17 06:45:34;;;;;;;1999.90;999.90;;;;;;;16.44;100.00;101255.44;10542434;28;20094;-66
2023/09/17 06:50:36;;;;;;;1999.90;999.90;;;;;;;16.51;100.00;101255.81;10522914;28;20525;-66
2023/09/17 06:55:39;;;;;;;1999.90;999.90;;;;;;;16.48;100.00;101245.47;10540601;28;20498;-66
2023/09/17 07:00:42;;;;;;;1999.90;999.90;;;;;;;16.45;100.00;101251.81;10523070;28;20050;-66
2023/09/17 07:05:44;;;;;;;1999.90;999.90;;;;;;;16.58;100.00;101241.19;10540336;28;20094;-66
2023/09/17 07:10:46;;;;;;;1999.90;999.90;;;;;;;16.49;100.00;101248.00;10540400;28;20124;-66
2023/09/17 07:15:49;;;;;;;1999.90;999.90;;;;;;;16.58;100.00;101249.09;10520279;28;20071;-66
2023/09/17 07:20:52;;;;;;;1999.90;999.90;;;;;;;16.50;100.00;101247.03;10480314;28;20485;-66
2023/09/17 07:25:54;;;;;;;1999.90;999.90;;;;;;;16.64;100.00;101259.22;10498487;28;20098;-66
2023/09/17 07:30:57;;;;;;;1999.90;999.90;;;;;;;16.50;100.00;101243.56;10498190;28;20052;-67
2023/09/17 07:35:59;;;;;;;1999.90;999.90;;;;;;;16.57;100.00;101249.22;10506836;28;20048;-67
2023/09/17 07:41:02;;;;;;;1999.90;999.90;;;;;;;16.51;100.00;101254.00;10505505;28;20055;-66
2023/09/17 07:46:05;;;;;;;1999.90;999.90;;;;;;;16.69;100.00;101256.22;10521193;28;20050;-66
2023/09/17 07:51:07;;;;;;;1999.90;999.90;;;;;;;16.61;100.00;101248.03;10533069;28;20041;-66
2023/09/17 07:56:10;;;;;;;1999.90;999.90;;;;;;;16.60;100.00;101249.00;10463126;28;20102;-66
2023/09/17 08:01:14;;;;;;;1999.90;999.90;;;;;;;16.53;100.00;101246.81;10528135;28;20044;-67
2023/09/17 08:06:16;;;;;;;1999.90;999.90;;;;;;;16.48;100.00;101246.31;10505820;28;20055;-66
2023/09/17 08:11:19;;;;;;;1999.90;999.90;;;;;;;16.68;100.00;101250.09;10517308;28;20079;-67
2023/09/17 08:16:24;;;;;;;1999.90;999.90;;;;;;;16.72;100.00;101246.25;10504353;28;20411;-66
2023/09/17 08:21:27;;;;;;;1999.90;999.90;;;;;;;16.70;100.00;101245.53;10525177;28;20446;-66
2023/09/17 08:26:32;;;;;;;1999.90;999.90;;;;;;;16.70;100.00;101237.59;10529249;28;20453;-65
2023/09/17 08:31:35;;;;;;;1999.90;999.90;;;;;;;16.78;100.00;101252.03;10546460;28;20123;-65
2023/09/17 08:36:38;;;;;;;1999.90;999.90;;;;;;;16.80;100.00;101250.97;10546202;28;20044;-64
2023/09/17 08:41:41;;;;;;;1999.90;999.90;;;;;;;16.73;100.00;101252.41;10528575;28;20059;-65
2023/09/17 08:46:43;;;;;;;1999.90;999.90;;;;;;;16.69;100.00;101243.84;10545743;28;20412;-66
2023/09/17 08:51:47;;;;;;;1999.90;999.90;;;;;;;16.99;100.00;101239.00;10527653;28;20090;-65
2023/09/17 08:56:50;;;;;;;1999.90;999.90;;;;;;;17.44;100.00;101244.28;10527454;28;20056;-67
2023/09/17 09:01:53;;;;;;;1999.90;999.90;;;;;;;17.12;100.00;101245.00;10510608;28;20173;-64
2023/09/17 09:06:56;;;;;;;1999.90;999.90;;;;;;;17.09;100.00;101258.47;10545012;28;20514;-64
2023/09/17 09:11:59;;;;;;;1999.90;999.90;;;;;;;16.95;100.00;101256.91;10510207;28;20040;-66
2023/09/17 09:17:02;;;;;;;1999.90;999.90;;;;;;;17.11;100.00;101261.00;10526690;28;20564;-66
2023/09/17 09:22:05;;;;;;;1999.90;999.90;;;;;;;17.23;100.00;101257.41;10509860;28;20048;-67
2023/09/17 09:27:08;;;;;;;1999.90;999.90;;;;;;;17.41;100.00;101241.88;10544906;28;20048;-67
2023/09/17 09:32:11;;;;;;;1999.90;999.90;;;;;;;17.15;100.00;101252.72;10544270;28;20079;-67
2023/09/17 09:37:14;;;;;;;1999.90;999.90;;;;;;;17.20;100.00;101255.84;10542408;28;20052;-67
2023/09/17 09:42:17;;;;;;;1999.90;999.90;;;;;;;17.25;100.00;101244.91;10544228;28;20040;-68
2023/09/17 09:47:22;;;;;;;1999.90;999.90;;;;;;;17.25;100.00;101252.84;10543924;28;20126;-67
2023/09/17 09:52:25;;;;;;;1999.90;999.90;;;;;;;17.52;100.00;101249.81;10501942;28;20090;-66
2023/09/17 09:57:28;;;;;;;1999.90;999.90;;;;;;;17.76;100.00;101239.06;10500996;28;20139;-67
2023/09/17 10:02:30;;;;;;;1999.90;999.90;;;;;;;17.82;100.00;101240.38;10483802;28;20127;-67
2023/09/17 10:07:32;;;;;;;1999.90;999.90;;;;;;;17.84;100.00;101233.16;10501263;28;20048;-67
2023/09/17 10:12:35;;;;;;;1999.90;999.90;;;;;;;17.80;100.00;101224.63;10501053;28;20053;-67
2023/09/17 10:17:38;;;;;;;1999.90;999.90;;;;;;;17.96;100.00;101224.22;10482536;28;20143;-67
2023/09/17 10:22:41;;;;;;;1999.90;999.90;;;;;;;17.88;100.00;101224.00;10482040;28;20045;-67
2023/09/17 10:27:45;;;;;;;1999.90;999.90;;;;;;;17.85;100.00;101218.91;10482760;28;20052;-67
2023/09/17 10:32:48;;;;;;;1999.90;999.90;;;;;;;18.11;100.00;101214.16;10482040;28;20580;-67
2023/09/17 10:37:51;;;;;;;1999.90;999.90;;;;;;;18.18;100.00;101209.22;10481636;28;20492;-67
2023/09/17 10:42:56;;;;;;;1999.90;999.90;;;;;;;18.59;100.00;101207.53;10481351;28;20048;-67
2023/09/17 10:48:00;;;;;;;1999.90;999.90;;;;;;;19.08;100.00;101192.75;10482732;28;20040;-68
2023/09/17 10:53:04;;;;;;;1999.90;999.90;;;;;;;19.13;100.00;101189.66;10499464;28;20059;-68
2023/09/17 10:58:16;;;;;;;1999.90;999.90;;;;;;;19.03;100.00;101180.81;10498542;28;20140;-68
2023/09/17 11:03:22;;;;;;;1999.90;999.90;;;;;;;19.08;100.00;101187.44;10465241;28;20165;-68
2023/09/17 11:08:25;;;;;;;1999.90;999.90;;;;;;;19.37;100.00;101181.38;10481654;28;20082;-68
2023/09/17 11:13:27;;;;;;;1999.90;999.90;;;;;;;19.48;100.00;101194.53;10481156;28;20052;-67
2023/09/17 11:18:30;;;;;;;1999.90;999.90;;;;;;;20.48;100.00;101199.75;10481103;28;20053;-68
2023/09/17 11:23:44;;;;;;;1999.90;999.90;;;;;;;20.64;100.00;101176.06;10497789;28;20048;-68
2023/09/17 11:28:55;;;;;;;1999.90;999.90;;;;;;;20.94;100.00;101177.63;10480215;28;20515;-68
2023/09/17 11:33:58;;;;;;;1999.90;999.90;;;;;;;20.69;100.00;101171.16;10499214;28;20048;-68
2023/09/17 11:39:05;;;;;;;1999.90;999.90;;;;;;;20.90;100.00;101168.28;10521500;28;20558;-68
2023/09/17 11:44:08;;;;;;;1999.90;999.90;;;;;;;21.14;100.00;101169.56;10521551;28;20489;-68
2023/09/17 11:49:11;;;;;;;1999.90;999.90;;;;;;;20.96;100.00;101170.38;10539904;28;20509;-69
2023/09/17 11:54:25;;;;;;;1999.90;999.90;;;;;;;21.40;100.00;101175.03;10523235;28;20091;-68
2023/09/17 11:59:28;;;;;;;1999.90;999.90;;;;;;;21.17;100.00;101168.44;10547562;28;20509;-68
2023/09/17 12:04:32;;;;;;;1999.90;999.90;;;;;;;21.48;100.00;101166.31;10548121;28;20071;-68
2023/09/17 12:10:00;;;;;;;1999.90;999.90;;;;;;;21.66;100.00;101175.16;10530025;28;20055;-68
2023/09/17 12:15:11;;;;;;;1999.90;999.90;;;;;;;21.68;100.00;101162.50;10547729;28;20056;-68
2023/09/17 12:21:09;;;;;;;1999.90;999.90;;;;;;;21.88;100.00;101175.69;10529974;28;20131;-68
2023/09/17 12:26:11;;;;;;;1999.90;999.90;;;;;;;23.27;100.00;101151.72;10530878;28;20075;-68
2023/09/17 12:31:13;;;;;;;1999.90;999.90;;;;;;;22.63;100.00;101164.63;10546464;28;20134;-68
2023/09/17 12:36:17;;;;;;;1999.90;999.90;;;;;;;23.45;100.00;101156.97;10528910;28;20048;-69
2023/09/17 12:41:19;;;;;;;1999.90;999.90;;;;;;;23.14;100.00;101144.16;10546015;28;20584;-69
2023/09/17 12:46:41;;;;;;;1999.90;999.90;;;;;;;23.12;100.00;101143.50;10545833;28;20517;-68
2023/09/17 12:51:44;;;;;;;1999.90;999.90;;;;;;;23.02;100.00;101136.59;10528319;28;20044;-70
2023/09/17 12:56:47;;;;;;;1999.90;999.90;;;;;;;23.31;100.00;101128.19;10545502;28;20060;-68
2023/09/17 13:01:53;;;;;;;1999.90;999.90;;;;;;;23.26;100.00;101127.84;10511586;28;20044;-69
2023/09/17 13:06:56;;;;;;;1999.90;999.90;;;;;;;22.19;100.00;101140.63;10527235;28;20052;-69
2023/09/17 13:12:00;;;;;;;1999.90;999.90;;;;;;;22.42;100.00;101132.97;10545489;28;20048;-69
2023/09/17 13:17:04;;;;;;;1999.90;999.90;;;;;;;22.32;100.00;101137.56;10528286;28;20044;-69
2023/09/17 13:22:06;;;;;;;1999.90;999.90;;;;;;;22.78;100.00;101130.19;10510712;28;20127;-69
2023/09/17 13:27:09;;;;;;;1999.90;999.90;;;;;;;23.85;100.00;101114.41;10526410;28;20508;-69
2023/09/17 13:32:11;;;;;;;1999.90;999.90;;;;;;;23.84;100.00;101115.41;10544739;28;20119;-70
2023/09/17 13:37:15;;;;;;;1999.90;999.90;;;;;;;23.83;98.27;101105.72;10543933;28;20066;-69
2023/09/17 13:42:17;;;;;;;1999.90;999.90;;;;;;;25.07;100.00;101111.59;10525660;28;20044;-69
2023/09/17 13:47:20;;;;;;;1999.90;999.90;;;;;;;23.75;100.00;101109.19;10526248;28;20051;-69
2023/09/17 13:52:22;;;;;;;1999.90;999.90;;;;;;;24.10;100.00;101112.56;10543102;28;20078;-68
2023/09/17 13:57:25;;;;;;;1999.90;999.90;;;;;;;23.95;100.00;101111.56;10542776;28;20056;-69
2023/09/17 14:02:27;;;;;;;1999.90;999.90;;;;;;;24.11;100.00;101112.41;10543400;28;20082;-69
2023/09/17 14:07:32;;;;;;;1999.90;999.90;;;;;;;24.42;95.48;101092.91;10524795;28;20485;-69
2023/09/17 14:12:34;;;;;;;1999.90;999.90;;;;;;;24.81;94.07;101100.19;10542437;28;20560;-68
2023/09/17 14:17:36;;;;;;;1999.90;999.90;;;;;;;24.22;99.21;101083.63;10541865;28;20122;-69
2023/09/17 14:22:39;;;;;;;1999.90;999.90;;;;;;;24.32;100.00;101081.56;10542668;28;20051;-69
2023/09/17 14:27:41;;;;;;;1999.90;999.90;;;;;;;23.79;97.89;101080.28;10523903;28;20455;-69
2023/09/17 14:32:44;;;;;;;1999.90;999.90;;;;;;;23.39;100.00;101090.00;10542249;28;20043;-69
2023/09/17 14:37:47;;;;;;;1999.90;999.90;;;;;;;23.24;100.00;101090.63;10523679;28;20081;-69
2023/09/17 14:42:49;;;;;;;1999.90;999.90;;;;;;;23.26;100.00;101083.28;10523264;28;20389;-68
2023/09/17 14:47:52;;;;;;;1999.90;999.90;;;;;;;22.93;100.00;101082.31;10541763;28;20082;-69
2023/09/17 14:52:54;;;;;;;1999.90;999.90;;;;;;;23.12;100.00;101073.25;10523593;28;20051;-68
2023/09/17 14:57:57;;;;;;;1999.90;999.90;;;;;;;23.23;100.00;101064.91;10540858;28;20101;-69
2023/09/17 15:02:59;;;;;;;1999.90;999.90;;;;;;;23.07;100.00;101065.72;10540415;28;20501;-69
2023/09/17 15:08:03;;;;;;;1999.90;999.90;;;;;;;23.16;100.00;101066.56;10540345;28;20054;-69
2023/09/17 15:13:05;;;;;;;1999.90;999.90;;;;;;;22.78;100.00;101058.94;10540924;28;20048;-69
2023/09/17 15:18:08;;;;;;;1999.90;999.90;;;;;;;22.74;100.00;101065.56;10540676;28;20059;-69
2023/09/17 15:23:10;;;;;;;1999.90;999.90;;;;;;;22.70;100.00;101066.91;10521917;28;20439;-69
2023/09/17 15:28:13;;;;;;;1999.90;999.90;;;;;;;22.63;100.00;101071.22;10540094;28;20056;-69
2023/09/17 15:33:15;;;;;;;1999.90;999.90;;;;;;;22.36;100.00;101072.25;10539789;28;20461;-69
2023/09/17 15:38:18;;;;;;;1999.90;999.90;;;;;;;22.22;100.00;101073.63;10522314;28;20052;-69
2023/09/17 15:43:21;;;;;;;1999.90;999.90;;;;;;;22.41;100.00;101069.97;10522085;28;20050;-69
2023/09/17 15:48:23;;;;;;;1999.90;999.90;;;;;;;22.44;100.00;101069.63;10505041;28;20485;-68
2023/09/17 15:53:27;;;;;;;1999.90;999.90;;;;;;;21.98;100.00;101069.81;10539687;28;20047;-69
2023/09/17 15:58:29;;;;;;;1999.90;999.90;;;;;;;22.08;100.00;101070.56;10538682;28;20560;-69
2023/09/17 16:03:31;;;;;;;1999.90;999.90;;;;;;;21.89;100.00;101071.59;10539614;28;20086;-69
2023/09/17 16:08:34;;;;;;;1999.90;999.90;;;;;;;21.95;100.00;101071.97;10543038;22;20044;-76
2023/09/17 16:13:36;;;;;;;1999.90;999.90;;;;;;;21.82;100.00;101073.22;10455381;28;20083;-76
2023/09/17 16:18:39;;;;;;;1999.90;999.90;;;;;;;21.80;100.00;101082.34;10455044;28;20131;-76
2023/09/17 16:23:41;;;;;;;1999.90;999.90;;;;;;;21.64;100.00;101085.72;10456042;28;20077;-76
2023/09/17 16:28:44;;;;;;;1999.90;999.90;;;;;;;21.53;100.00;101081.44;10454814;28;20105;-76
2023/09/17 16:33:46;;;;;;;1999.90;999.90;;;;;;;21.29;100.00;101090.03;10455372;28;20485;-76
2023/09/17 16:38:49;;;;;;;1999.90;999.90;;;;;;;21.08;100.00;101096.47;10453970;28;20409;-76
2023/09/17 16:43:51;;;;;;;1999.90;999.90;;;;;;;21.09;100.00;101097.31;10461003;28;20136;-76
2023/09/17 16:48:54;;;;;;;1999.90;999.90;;;;;;;21.05;100.00;101087.97;10463248;28;20052;-76
2023/09/17 16:53:56;;;;;;;1999.90;999.90;;;;;;;20.93;100.00;101096.13;10462415;28;20575;-76
2023/09/17 16:59:03;;;;;;;1999.90;999.90;;;;;;;20.86;100.00;101088.88;10462877;28;20131;-77
2023/09/17 17:04:05;;;;;;;1999.90;999.90;;;;;;;20.61;100.00;101088.56;10462681;28;20107;-77
2023/09/17 17:09:08;;;;;;;1999.90;999.90;;;;;;;20.55;100.00;101079.34;10461281;28;20139;-76
2023/09/17 17:14:10;;;;;;;1999.90;999.90;;;;;;;20.46;100.00;101071.38;10461688;28;20577;-77
2023/09/17 17:19:13;;;;;;;1999.90;999.90;;;;;;;20.38;100.00;101074.78;10462087;28;20141;-76
2023/09/17 17:24:15;;;;;;;1999.90;999.90;;;;;;;20.25;100.00;101068.97;10461139;28;20579;-77
2023/09/17 17:29:18;;;;;;;1999.90;999.90;;;;;;;20.20;100.00;101059.56;10461660;28;20140;-76
2023/09/17 17:34:20;;;;;;;1999.90;999.90;;;;;;;19.98;100.00;101055.44;10461513;28;20048;-76
2023/09/17 17:39:24;;;;;;;1999.90;999.90;;;;;;;19.84;100.00;101046.09;10459523;28;20122;-76
2023/09/17 17:44:27;;;;;;;1999.90;999.90;;;;;;;19.71;100.00;101048.19;10461171;28;20132;-76
2023/09/17 17:49:29;;;;;;;1999.90;999.90;;;;;;;19.68;100.00;101041.31;10461142;28;20132;-76
2023/09/17 17:54:32;;;;;;;1999.90;999.90;;;;;;;19.64;100.00;101031.16;10459847;28;20537;-76
2023/09/17 17:59:34;;;;;;;1999.90;999.90;;;;;;;19.43;100.00;101029.50;10460520;28;20080;-76
2023/09/17 18:04:37;;;;;;;1999.90;999.90;;;;;;;19.26;100.00;101035.47;10459709;28;20408;-76
2023/09/17 18:09:40;;;;;;;1999.90;999.90;;;;;;;19.24;100.00;101035.63;10458790;28;20136;-77
2023/09/17 18:14:43;;;;;;;1999.90;999.90;;;;;;;19.28;100.00;101028.22;10460141;28;20124;-77
2023/09/17 18:19:46;;;;;;;1999.90;999.90;;;;;;;19.16;100.00;101018.72;10458548;28;20081;-77
2023/09/17 18:24:48;;;;;;;1999.90;999.90;;;;;;;18.99;100.00;101013.09;10459654;28;20056;-76
2023/09/17 18:29:51;;;;;;;1999.90;999.90;;;;;;;18.86;100.00;101021.34;10459292;28;20127;-76
2023/09/17 18:34:53;;;;;;;1999.90;999.90;;;;;;;18.91;100.00;101019.13;10458455;28;20498;-76
2023/09/17 18:39:56;;;;;;;1999.90;999.90;;;;;;;18.77;100.00;101023.94;10458919;28;20127;-76
2023/09/17 18:44:58;;;;;;;1999.90;999.90;;;;;;;18.67;100.00;101030.03;10456834;28;20520;-76
2023/09/17 18:50:01;;;;;;;1999.90;999.90;;;;;;;18.55;100.00;101013.38;10458500;28;20049;-76
2023/09/17 18:55:04;;;;;;;1999.90;999.90;;;;;;;18.45;100.00;101009.88;10457758;28;20398;-77
2023/09/17 19:00:08;;;;;;;1999.90;999.90;;;;;;;18.55;100.00;101009.91;10457456;28;20400;-77
2023/09/17 19:05:12;;;;;;;1999.90;999.90;;;;;;;18.54;100.00;100997.63;10456800;28;20482;-77
2023/09/17 19:10:14;;;;;;;1999.90;999.90;;;;;;;18.56;100.00;100991.22;10457448;28;20061;-76
2023/09/17 19:15:17;;;;;;;1999.90;999.90;;;;;;;18.33;100.00;100987.09;10457659;28;20053;-77
2023/09/17 19:20:19;;;;;;;1999.90;999.90;;;;;;;18.22;100.00;100995.13;10457382;28;20102;-77
2023/09/17 19:25:22;;;;;;;1999.90;999.90;;;;;;;18.15;100.00;101014.19;10456184;28;20074;-77
2023/09/17 19:30:24;;;;;;;1999.90;999.90;;;;;;;18.02;100.00;101002.97;10457101;28;20114;-77
2023/09/17 19:35:27;;;;;;;1999.90;999.90;;;;;;;17.97;100.00;100997.25;10456387;28;20045;-77
2023/09/17 19:40:29;;;;;;;1999.90;999.90;;;;;;;17.93;100.00;100994.00;10456199;28;20056;-76
2023/09/17 19:45:31;;;;;;;1999.90;999.90;;;;;;;18.13;100.00;101002.91;10456823;28;20110;-76
2023/09/17 19:50:34;;;;;;;1999.90;999.90;;;;;;;18.17;100.00;100999.03;10439227;28;20055;-76
2023/09/17 19:55:37;;;;;;;1999.90;999.90;;;;;;;18.17;100.00;101000.81;10456776;28;20132;-76
2023/09/17 20:00:41;;;;;;;1999.90;999.90;;;;;;;18.14;100.00;100994.00;10455261;28;20057;-76
2023/09/17 20:05:43;;;;;;;1999.90;999.90;;;;;;;17.96;100.00;100977.03;10456486;28;20049;-77
2023/09/17 20:10:46;;;;;;;1999.90;999.90;;;;;;;18.08;100.00;100965.38;10456008;28;20132;-76
2023/09/17 20:15:48;;;;;;;1999.90;999.90;;;;;;;18.06;100.00;100967.31;10458655;28;20056;-77
2023/09/17 20:20:51;;;;;;;1999.90;999.90;;;;;;;18.11;100.00;100962.47;10463174;28;20049;-76
2023/09/17 20:25:53;;;;;;;1999.90;999.90;;;;;;;17.97;100.00;100965.44;10464354;28;20140;-77
2023/09/17 20:30:55;;;;;;;1999.90;999.90;;;;;;;17.81;100.00;100964.09;10462860;28;20049;-76
2023/09/17 20:35:58;;;;;;;1999.90;999.90;;;;;;;17.92;100.00;100963.22;10463799;28;20107;-76
2023/09/17 20:41:00;;;;;;;1999.90;999.90;;;;;;;17.82;100.00;100965.78;10463488;28;20110;-76
2023/09/17 20:46:06;;;;;;;1999.90;999.90;;;;;;;17.86;100.00;100979.59;10463396;28;20064;-76
2023/09/17 20:51:09;;;;;;;1999.90;999.90;;;;;;;17.67;100.00;100979.47;10463254;28;20041;-76
2023/09/17 20:56:12;;;;;;;1999.90;999.90;;;;;;;17.62;100.00;100983.34;10461850;28;20128;-76
2023/09/17 21:01:16;;;;;;;1999.90;999.90;;;;;;;17.59;100.00;100986.25;10460951;28;20111;-76
2023/09/17 21:06:19;;;;;;;1999.90;999.90;;;;;;;17.57;100.00;100968.84;10461964;28;20425;-76
2023/09/17 21:11:22;;;;;;;1999.90;999.90;;;;;;;17.68;100.00;100973.22;10462003;28;20053;-76
2023/09/17 21:16:25;;;;;;;1999.90;999.90;;;;;;;17.60;100.00;100956.19;10461116;28;20072;-76
2023/09/17 21:21:28;;;;;;;1999.90;999.90;;;;;;;17.58;100.00;100957.25;10461241;28;20088;-76
2023/09/17 21:26:32;;;;;;;1999.90;999.90;;;;;;;17.60;100.00;100955.31;10461267;28;20127;-76
2023/09/17 21:31:34;;;;;;;1999.90;999.90;;;;;;;17.52;100.00;100944.56;10461131;28;20490;-76
2023/09/17 21:36:37;;;;;;;1999.90;999.90;;;;;;;17.55;100.00;100939.00;10459612;28;20449;-76
2023/09/17 21:41:39;;;;;;;1999.90;999.90;;;;;;;17.53;100.00;100927.69;10461144;28;20045;-76